Time;durP1;ratioP1;P1;durP2;ratioP2;P2;SDS_P1;SDS_P2;PMS_P1;PMS_P2;Temp;Humidity;BMP_temperature;BMP_pressure;BME280_temperature;BME280_humidity;BME280_pressure;Samples;Min_cycle;Max_cycle;Signal;HPM_P1;HPM_P2
2022/12/09 00:02:17;;;;;;;;;;;;;;;21.40;45.65;100265.19;5039365;28;4192;-58
2022/12/09 00:04:44;;;;;;;;;;;;;;;21.43;45.56;100269.63;5034085;28;5295;-57
2022/12/09 00:07:11;;;;;;;;;;;;;;;21.44;45.52;100271.09;5035453;28;4258;-57
2022/12/09 00:09:37;;;;;;;;;;;;;;;21.42;45.48;100282.56;5038803;28;4265;-58
2022/12/09 00:12:04;;;;;;;;;;;;;;;21.42;45.34;100280.44;5032602;28;4208;-57
2022/12/09 00:14:30;;;;;;;;;;;;;;;21.43;45.49;100275.41;5013014;28;4120;-57
2022/12/09 00:16:56;;;;;;;;;;;;;;;21.43;45.56;100279.00;5029155;28;4210;-58
2022/12/09 00:19:23;;;;;;;;;;;;;;;21.41;45.49;100278.94;5041535;28;4027;-57
2022/12/09 00:21:49;;;;;;;;;;;;;;;21.38;45.51;100279.53;5039735;28;4169;-58
2022/12/09 00:24:15;;;;;;;;;;;;;;;21.39;45.58;100281.72;5037574;28;4943;-57
2022/12/09 00:26:42;;;;;;;;;;;;;;;21.39;45.44;100283.88;5036822;28;4191;-58
2022/12/09 00:29:09;;;;;;;;;;;;;;;21.34;45.31;100280.84;5029154;28;4206;-57
2022/12/09 00:31:36;;;;;;;;;;;;;;;21.33;45.16;100282.28;5031624;28;4429;-57
2022/12/09 00:34:06;;;;;;;;;;;;;;;21.33;45.38;100281.53;5035597;28;4132;-58
2022/12/09 00:36:35;;;;;;;;;;;;;;;21.33;45.65;100276.50;5038809;28;4252;-57
2022/12/09 00:39:02;;;;;;;;;;;;;;;21.36;45.39;100288.09;5041948;28;6310;-58
2022/12/09 00:41:28;;;;;;;;;;;;;;;21.36;45.27;100276.59;5048969;28;4039;-58
2022/12/09 00:43:55;;;;;;;;;;;;;;;21.34;45.71;100286.63;5050425;28;4160;-58
2022/12/09 00:46:21;;;;;;;;;;;;;;;21.34;45.73;100285.88;5047447;28;4274;-58
2022/12/09 00:48:48;;;;;;;;;;;;;;;21.37;45.56;100301.09;5053281;28;4126;-57
2022/12/09 00:51:15;;;;;;;;;;;;;;;21.37;45.50;100295.31;5050608;28;5214;-58
2022/12/09 00:53:41;;;;;;;;;;;;;;;21.38;45.64;100299.69;5055728;28;5451;-57
2022/12/09 00:56:08;;;;;;;;;;;;;;;21.34;45.68;100298.13;5051739;28;4191;-59
2022/12/09 00:58:34;;;;;;;;;;;;;;;21.33;45.67;100302.44;5035402;28;4206;-59
2022/12/09 01:01:01;;;;;;;;;;;;;;;21.32;45.58;100306.69;5040660;28;4185;-59
2022/12/09 01:03:27;;;;;;;;;;;;;;;21.33;45.36;100305.31;5050771;28;4193;-58
2022/12/09 01:05:54;;;;;;;;;;;;;;;21.30;45.48;100298.03;5047233;28;6719;-57
2022/12/09 01:08:20;;;;;;;;;;;;;;;21.29;45.41;100296.53;5057476;28;4093;-58
2022/12/09 01:10:47;;;;;;;;;;;;;;;21.29;45.20;100302.28;5041386;28;5205;-58
2022/12/09 01:13:13;;;;;;;;;;;;;;;21.29;45.33;100302.28;5057523;28;4114;-58
2022/12/09 01:15:40;;;;;;;;;;;;;;;21.30;45.60;100303.78;5051016;28;4163;-57
2022/12/09 01:18:06;;;;;;;;;;;;;;;21.32;45.63;100308.84;5046184;28;4228;-58
2022/12/09 01:20:33;;;;;;;;;;;;;;;21.32;45.72;100311.72;5054387;28;5438;-55
2022/12/09 01:22:59;;;;;;;;;;;;;;;21.32;45.33;100314.59;5050703;28;4272;-58
2022/12/09 01:25:25;;;;;;;;;;;;;;;21.39;45.81;100301.16;5049423;28;4238;-58
2022/12/09 01:27:52;;;;;;;;;;;;;;;21.37;45.82;100306.84;5057983;28;5157;-58
2022/12/09 01:30:18;;;;;;;;;;;;;;;21.36;45.76;100305.38;5053223;28;5222;-58
2022/12/09 01:32:45;;;;;;;;;;;;;;;21.33;45.43;100302.44;5031440;28;4198;-55
2022/12/09 01:35:12;;;;;;;;;;;;;;;21.32;45.47;100300.94;5056439;28;5456;-58
2022/12/09 01:37:39;;;;;;;;;;;;;;;21.30;45.60;100297.25;5055390;28;4177;-57
2022/12/09 01:40:06;;;;;;;;;;;;;;;21.30;45.57;100303.78;5048800;28;4103;-58
2022/12/09 01:42:33;;;;;;;;;;;;;;;21.29;45.68;100308.03;5040091;28;4210;-58
2022/12/09 01:45:18;;;;;;;;;;;;;;;21.27;45.38;100307.97;5037576;28;4065;-57
2022/12/09 01:47:48;;;;;;;;;;;;;;;21.26;45.31;100309.41;5039922;28;4115;-57
2022/12/09 01:50:15;;;;;;;;;;;;;;;21.25;45.61;100310.78;5038962;28;4039;-58
2022/12/09 01:52:41;;;;;;;;;;;;;;;21.25;45.93;100310.06;5038668;28;5228;-57
2022/12/09 01:55:07;;;;;;;;;;;;;;;21.25;45.58;100315.81;5021273;28;4222;-58
2022/12/09 01:57:34;;;;;;;;;;;;;;;21.25;45.59;100313.66;5035595;28;5306;-58
2022/12/09 02:00:01;;;;;;;;;;;;;;;21.26;45.65;100309.41;5018158;28;4115;-58
2022/12/09 02:02:27;;;;;;;;;;;;;;;21.27;45.59;100307.97;5020725;28;6415;-58
2022/12/09 02:04:54;;;;;;;;;;;;;;;21.27;45.76;100305.09;5034611;28;4103;-58
2022/12/09 02:07:21;;;;;;;;;;;;;;;21.28;45.56;100302.94;5030170;28;4095;-58
2022/12/09 02:09:51;;;;;;;;;;;;;;;21.30;45.82;100303.78;5034176;28;4136;-58
2022/12/09 02:12:29;;;;;;;;;;;;;;;21.31;45.69;100299.47;5024243;28;4020;-58
2022/12/09 02:15:00;;;;;;;;;;;;;;;21.28;45.71;100295.06;5020869;28;5313;-57
2022/12/09 02:17:59;;;;;;;;;;;;;;;21.25;45.58;100302.16;5016752;28;4290;-57
2022/12/09 02:20:37;;;;;;;;;;;;;;;21.24;45.63;100294.94;5037092;28;4789;-58
2022/12/09 02:23:06;;;;;;;;;;;;;;;21.23;45.70;100295.59;5035108;28;7301;-58
2022/12/09 02:25:35;;;;;;;;;;;;;;;21.23;45.49;100287.69;5043863;28;4141;-58
2022/12/09 02:28:17;;;;;;;;;;;;;;;21.24;45.52;100299.94;5030833;28;4038;-57
2022/12/09 02:31:02;;;;;;;;;;;;;;;21.23;45.72;100295.59;5018657;28;3981;-57
2022/12/09 02:33:55;;;;;;;;;;;;;;;21.21;45.82;100289.75;5027385;28;5471;-58
2022/12/09 02:36:22;;;;;;;;;;;;;;;21.21;45.94;100296.28;4963063;28;4283;-56
2022/12/09 02:38:49;;;;;;;;;;;;;;;21.25;45.82;100292.78;5016950;28;4192;-58
2022/12/09 02:41:17;;;;;;;;;;;;;;;21.27;45.69;100287.09;5030659;28;4588;-56
2022/12/09 02:43:57;;;;;;;;;;;;;;;21.28;45.77;100289.31;5025577;28;4221;-57
2022/12/09 02:46:28;;;;;;;;;;;;;;;21.26;45.90;100289.25;5023338;28;4185;-58
2022/12/09 02:48:55;;;;;;;;;;;;;;;21.27;45.70;100287.81;5034728;28;4040;-56
2022/12/09 02:51:22;;;;;;;;;;;;;;;21.28;45.85;100294.31;5053415;28;4214;-57
2022/12/09 02:53:51;;;;;;;;;;;;;;;21.26;45.62;100285.63;5045900;28;4978;-57
2022/12/09 02:56:17;;;;;;;;;;;;;;;21.23;45.55;100290.56;5046248;28;4233;-58
2022/12/09 02:58:44;;;;;;;;;;;;;;;21.22;45.84;100291.97;5027016;28;4294;-58
2022/12/09 03:01:19;;;;;;;;;;;;;;;21.21;45.80;100293.41;5047959;28;4470;-57
2022/12/09 03:03:46;;;;;;;;;;;;;;;21.20;46.00;100286.16;5054656;28;4316;-57
2022/12/09 03:06:13;;;;;;;;;;;;;;;21.19;46.07;100293.31;5044684;28;5227;-57
2022/12/09 03:08:42;;;;;;;;;;;;;;;21.19;45.81;100287.56;5042572;28;5082;-57
2022/12/09 03:11:09;;;;;;;;;;;;;;;21.18;45.79;100288.94;5039898;28;5558;-58
2022/12/09 03:13:41;;;;;;;;;;;;;;;21.17;46.00;100290.38;5049924;28;4369;-57
2022/12/09 03:16:19;;;;;;;;;;;;;;;21.20;45.90;100289.03;5038959;28;4195;-58
2022/12/09 03:18:47;;;;;;;;;;;;;;;21.20;45.80;100288.28;5038003;28;5243;-58
2022/12/09 03:21:13;;;;;;;;;;;;;;;21.20;45.88;100286.16;5036767;28;3977;-57
2022/12/09 03:23:40;;;;;;;;;;;;;;;21.20;45.80;100280.38;5036779;28;5602;-57
2022/12/09 03:26:07;;;;;;;;;;;;;;;21.20;45.95;100280.38;5031400;28;3982;-57
2022/12/09 03:28:37;;;;;;;;;;;;;;;21.21;45.80;100284.75;5035028;28;5100;-56
2022/12/09 03:31:05;;;;;;;;;;;;;;;21.19;45.77;100281.81;5030539;28;4195;-58
2022/12/09 03:33:31;;;;;;;;;;;;;;;21.18;45.91;100274.56;5032920;28;4101;-58
2022/12/09 03:35:59;;;;;;;;;;;;;;;21.17;45.79;100278.84;5031649;28;4215;-57
2022/12/09 03:38:26;;;;;;;;;;;;;;;21.18;45.75;100279.59;5048584;28;4207;-57
2022/12/09 03:40:56;;;;;;;;;;;;;;;21.17;45.67;100278.13;5043994;28;4277;-57
2022/12/09 03:43:23;;;;;;;;;;;;;;;21.16;45.67;100280.25;5041801;28;4199;-58
2022/12/09 03:45:53;;;;;;;;;;;;;;;21.14;45.69;100288.81;5038714;28;5209;-58
2022/12/09 03:48:19;;;;;;;;;;;;;;;21.15;45.87;100292.44;5047201;28;4156;-56
2022/12/09 03:50:51;;;;;;;;;;;;;;;21.18;46.02;100285.34;5044316;28;4256;-56
2022/12/09 03:53:19;;;;;;;;;;;;;;;21.21;46.06;100279.00;5042767;28;4104;-58
2022/12/09 03:56:00;;;;;;;;;;;;;;;21.21;46.05;100284.75;5039497;28;5405;-58
2022/12/09 03:58:26;;;;;;;;;;;;;;;21.22;45.77;100286.22;5041113;28;3961;-57
2022/12/09 04:00:53;;;;;;;;;;;;;;;21.23;45.89;100281.91;5034840;28;3973;-58
2022/12/09 04:03:20;;;;;;;;;;;;;;;21.23;45.77;100273.28;5039169;28;4266;-58
2022/12/09 04:05:46;;;;;;;;;;;;;;;21.25;45.93;100279.09;5035246;28;5273;-58
2022/12/09 04:08:13;;;;;;;;;;;;;;;21.27;45.94;100284.94;5030614;28;5503;-57
2022/12/09 04:10:40;;;;;;;;;;;;;;;21.28;45.84;100279.91;5037728;28;4171;-57
2022/12/09 04:13:06;;;;;;;;;;;;;;;21.28;46.00;100280.66;5031692;28;4191;-57
2022/12/09 04:15:33;;;;;;;;;;;;;;;21.27;45.98;100270.53;5028674;28;4136;-57
2022/12/09 04:17:59;;;;;;;;;;;;;;;21.26;45.90;100268.34;5037864;28;4091;-57
2022/12/09 04:20:26;;;;;;;;;;;;;;;21.26;45.82;100269.09;5043169;28;4036;-57
2022/12/09 04:22:54;;;;;;;;;;;;;;;21.26;45.80;100271.97;5047313;28;4144;-58
2022/12/09 04:25:20;;;;;;;;;;;;;;;21.26;45.90;100274.84;5048945;28;5425;-57
2022/12/09 04:27:48;;;;;;;;;;;;;;;21.24;45.77;100277.66;5046124;28;4492;-58
2022/12/09 04:30:15;;;;;;;;;;;;;;;21.22;45.83;100268.94;5054249;28;4253;-57
2022/12/09 04:32:42;;;;;;;;;;;;;;;21.20;45.94;100271.75;5058596;28;4198;-56
2022/12/09 04:35:09;;;;;;;;;;;;;;;21.21;45.77;100273.25;5044482;28;4026;-58
2022/12/09 04:37:36;;;;;;;;;;;;;;;21.22;45.70;100268.94;5038478;28;4141;-58
2022/12/09 04:40:05;;;;;;;;;;;;;;;21.21;45.68;100273.25;5049469;28;5289;-57
2022/12/09 04:42:33;;;;;;;;;;;;;;;21.20;45.65;100271.75;5038182;28;4219;-57
2022/12/09 04:44:59;;;;;;;;;;;;;;;21.18;45.75;100271.69;5047109;28;4018;-58
2022/12/09 04:47:26;;;;;;;;;;;;;;;21.18;45.63;100268.78;5050000;28;4315;-56
2022/12/09 04:49:52;;;;;;;;;;;;;;;21.18;45.68;100279.59;5043521;28;4166;-57
2022/12/09 04:52:19;;;;;;;;;;;;;;;21.16;46.04;100277.38;5035468;28;4191;-57
2022/12/09 04:54:47;;;;;;;;;;;;;;;21.17;46.03;100278.13;5037582;28;5235;-58
2022/12/09 04:57:13;;;;;;;;;;;;;;;21.21;46.09;100279.00;5041052;28;4192;-57
2022/12/09 04:59:40;;;;;;;;;;;;;;;21.24;46.25;100276.91;5044230;28;5497;-56
2022/12/09 05:02:07;;;;;;;;;;;;;;;21.23;45.86;100284.81;5038480;28;4201;-56
2022/12/09 05:04:34;;;;;;;;;;;;;;;21.25;45.93;100284.88;5043646;28;5333;-57
2022/12/09 05:07:00;;;;;;;;;;;;;;;21.25;45.76;100279.09;5038898;28;5129;-57
2022/12/09 05:09:27;;;;;;;;;;;;;;;21.28;45.80;100277.78;5041993;28;4263;-58
2022/12/09 05:11:55;;;;;;;;;;;;;;;21.28;45.78;100274.16;5041800;28;4128;-57
2022/12/09 05:14:22;;;;;;;;;;;;;;;21.29;45.61;100273.50;5034554;28;4142;-57
2022/12/09 05:16:48;;;;;;;;;;;;;;;21.27;45.79;100281.31;5038471;28;4407;-57
2022/12/09 05:19:15;;;;;;;;;;;;;;;21.23;46.11;100276.16;5026172;28;4133;-47
2022/12/09 05:21:42;;;;;;;;;;;;;;;21.34;46.17;100277.25;5028309;28;4467;-49
2022/12/09 05:24:09;;;;;;;;;;;;;;;21.01;45.21;100266.78;5031977;28;4225;-50
2022/12/09 05:26:36;;;;;;;;;;;;;;;21.00;45.18;100271.06;5030268;28;5368;-50
2022/12/09 05:29:02;;;;;;;;;;;;;;;21.07;45.35;100270.63;5044531;28;5175;-51
2022/12/09 05:31:28;;;;;;;;;;;;;;;21.12;45.26;100272.22;5039621;28;4135;-50
2022/12/09 05:33:55;;;;;;;;;;;;;;;21.13;44.87;100276.56;5041498;28;4102;-50
2022/12/09 05:36:28;;;;;;;;;;;;;;;21.15;44.75;100283.81;5043484;28;5553;-54
2022/12/09 05:38:55;;;;;;;;;;;;;;;21.15;44.96;100280.94;5040945;28;5180;-48
2022/12/09 05:41:21;;;;;;;;;;;;;;;21.15;45.11;100287.41;5037409;28;4035;-49
2022/12/09 05:43:48;;;;;;;;;;;;;;;21.15;45.18;100284.53;5044956;28;4200;-48
2022/12/09 05:46:15;;;;;;;;;;;;;;;21.15;45.02;100286.69;5040124;28;5322;-51
2022/12/09 05:48:42;;;;;;;;;;;;;;;21.16;45.13;100280.25;5038856;28;5252;-50
2022/12/09 05:51:14;;;;;;;;;;;;;;;21.16;45.15;100294.63;5045396;28;4165;-52
2022/12/09 05:53:40;;;;;;;;;;;;;;;21.16;44.96;100288.88;5043914;28;4313;-49
2022/12/09 05:56:07;;;;;;;;;;;;;;;21.19;45.23;100287.56;5041826;28;4414;-48
2022/12/09 05:58:34;;;;;;;;;;;;;;;21.20;45.38;100291.16;5041557;28;5217;-51
2022/12/09 06:01:06;;;;;;;;;;;;;;;21.21;45.32;100290.50;5039415;28;4245;-48
2022/12/09 06:03:33;;;;;;;;;;;;;;;21.23;45.24;100286.94;5037528;28;4168;-51
2022/12/09 06:06:04;;;;;;;;;;;;;;;21.20;45.42;100289.03;5040917;28;5312;-61
2022/12/09 06:08:31;;;;;;;;;;;;;;;21.29;45.52;100282.13;5045779;28;4305;-61
2022/12/09 06:10:58;;;;;;;;;;;;;;;21.30;45.18;100283.63;5041267;28;6261;-61
2022/12/09 06:13:25;;;;;;;;;;;;;;;21.32;45.40;100286.53;5040356;28;4078;-60
2022/12/09 06:15:52;;;;;;;;;;;;;;;21.34;45.32;100285.88;5039898;28;4435;-60
2022/12/09 06:18:19;;;;;;;;;;;;;;;21.37;45.32;100283.81;5039336;28;5246;-61
2022/12/09 06:20:45;;;;;;;;;;;;;;;21.37;45.32;100287.41;5039554;28;4131;-60
2022/12/09 06:23:12;;;;;;;;;;;;;;;21.37;45.42;100286.69;5048667;28;4009;-60
2022/12/09 06:25:41;;;;;;;;;;;;;;;21.39;45.38;100287.47;5060967;28;4833;-60
2022/12/09 06:28:08;;;;;;;;;;;;;;;21.41;45.63;100283.97;5058857;28;4180;-60
2022/12/09 06:30:34;;;;;;;;;;;;;;;21.40;45.67;100291.88;5059522;28;5232;-60
2022/12/09 06:33:01;;;;;;;;;;;;;;;21.40;45.82;100294.00;5060213;28;5164;-60
2022/12/09 06:35:34;;;;;;;;;;;;;;;21.39;45.85;100293.25;5060601;28;4147;-60
2022/12/09 06:38:01;;;;;;;;;;;;;;;21.41;46.01;100289.72;5049669;28;5282;-59
2022/12/09 06:40:28;;;;;;;;;;;;;;;21.40;45.85;100297.63;5054160;28;4244;-59
2022/12/09 06:42:54;;;;;;;;;;;;;;;21.42;46.07;100302.75;5053226;28;4092;-59
2022/12/09 06:45:21;;;;;;;;;;;;;;;21.41;45.79;100301.97;5053477;28;3924;-62
2022/12/09 06:47:48;;;;;;;;;;;;;;;21.43;45.96;100298.44;5051482;28;4126;-65
2022/12/09 06:50:14;;;;;;;;;;;;;;;21.43;45.74;100304.19;5051702;28;4203;-61
2022/12/09 06:52:41;;;;;;;;;;;;;;;21.43;45.84;100304.19;5049255;28;4082;-59
2022/12/09 06:55:08;;;;;;;;;;;;;;;21.42;45.85;100311.38;5044804;28;4001;-59
2022/12/09 06:57:35;;;;;;;;;;;;;;;21.18;44.53;100311.25;5054484;28;3938;-59
2022/12/09 07:00:02;;;;;;;;;;;;;;;20.90;42.61;100315.34;5050777;28;4022;-60
2022/12/09 07:02:29;;;;;;;;;;;;;;;20.74;40.26;100309.03;5054171;28;4195;-60
2022/12/09 07:05:01;;;;;;;;;;;;;;;20.07;35.65;100307.22;5053080;28;5244;-60
2022/12/09 07:07:29;;;;;;;;;;;;;;;20.33;35.72;100301.75;5052729;28;4190;-61
2022/12/09 07:09:55;;;;;;;;;;;;;;;20.64;36.10;100305.78;5047921;28;5311;-59
2022/12/09 07:12:22;;;;;;;;;;;;;;;20.84;36.71;100309.38;5055144;28;4238;-59
2022/12/09 07:14:49;;;;;;;;;;;;;;;20.97;38.81;100310.53;5054056;28;5157;-60
2022/12/09 07:17:16;;;;;;;;;;;;;;;21.01;40.49;100307.09;5050145;28;4091;-60
2022/12/09 07:19:43;;;;;;;;;;;;;;;21.06;40.77;100305.81;5055032;28;4111;-59
2022/12/09 07:22:10;;;;;;;;;;;;;;;21.07;40.75;100307.28;5055952;28;4239;-60
2022/12/09 07:24:37;;;;;;;;;;;;;;;21.12;41.57;100306.03;5055193;28;5219;-59
2022/12/09 07:27:06;;;;;;;;;;;;;;;21.12;41.70;100311.78;5054052;28;4293;-61
2022/12/09 07:29:37;;;;;;;;;;;;;;;21.14;41.44;100308.97;5057912;28;5002;-60
2022/12/09 07:32:03;;;;;;;;;;;;;;;21.17;41.99;100301.16;5056712;28;4059;-60
2022/12/09 07:34:30;;;;;;;;;;;;;;;21.19;41.90;100306.97;5057805;28;4094;-60
2022/12/09 07:36:57;;;;;;;;;;;;;;;21.18;42.47;100312.00;5058127;28;5428;-60
2022/12/09 07:39:24;;;;;;;;;;;;;;;21.21;42.34;100315.66;5055579;28;3903;-59
2022/12/09 07:41:57;;;;;;;;;;;;;;;21.21;42.68;100319.31;5059270;28;4298;-59
2022/12/09 07:44:27;;;;;;;;;;;;;;;21.21;42.82;100313.53;5042536;28;4324;-60
2022/12/09 07:46:54;;;;;;;;;;;;;;;21.22;42.65;100314.28;5060128;28;4118;-59
2022/12/09 07:49:21;;;;;;;;;;;;;;;21.21;42.67;100313.53;5059874;28;4151;-59
2022/12/09 07:51:47;;;;;;;;;;;;;;;21.22;42.90;100317.88;5052563;28;4287;-60
2022/12/09 07:54:14;;;;;;;;;;;;;;;21.23;43.05;100315.75;5041127;28;4172;-59
2022/12/09 07:56:40;;;;;;;;;;;;;;;21.20;43.02;100320.69;5046411;28;5179;-60
2022/12/09 07:59:07;;;;;;;;;;;;;;;21.19;43.06;100321.34;5044197;28;4192;-59
2022/12/09 08:01:34;;;;;;;;;;;;;;;21.20;43.37;100323.56;5046973;28;4094;-60
2022/12/09 08:04:01;;;;;;;;;;;;;;;21.20;43.38;100326.47;5050978;28;5434;-60
2022/12/09 08:06:28;;;;;;;;;;;;;;;21.22;43.41;100329.41;5048589;28;3949;-60
2022/12/09 08:08:58;;;;;;;;;;;;;;;21.22;43.50;100329.41;5046127;28;4511;-59
2022/12/09 08:11:26;;;;;;;;;;;;;;;21.22;43.43;100325.78;5049422;28;4101;-60
2022/12/09 08:13:54;;;;;;;;;;;;;;;21.21;43.48;100330.81;5054117;28;4067;-60
2022/12/09 08:16:21;;;;;;;;;;;;;;;21.24;43.41;100335.25;5046248;28;3913;-59
2022/12/09 08:18:48;;;;;;;;;;;;;;;21.23;43.55;100330.88;5039682;28;4305;-60
2022/12/09 08:21:16;;;;;;;;;;;;;;;21.23;43.72;100328.00;5045426;28;3960;-60
2022/12/09 08:23:42;;;;;;;;;;;;;;;21.24;43.51;100325.88;5044415;28;4150;-60
2022/12/09 08:26:09;;;;;;;;;;;;;;;21.24;43.66;100323.72;5037410;28;4070;-60
2022/12/09 08:28:36;;;;;;;;;;;;;;;21.25;43.69;100321.56;5036232;28;4124;-59
2022/12/09 08:31:09;;;;;;;;;;;;;;;21.24;43.92;100329.47;5044293;28;5203;-60
2022/12/09 08:33:37;;;;;;;;;;;;;;;21.24;43.76;100323.00;5040260;28;4154;-60
2022/12/09 08:36:06;;;;;;;;;;;;;;;21.22;44.01;100320.78;5052062;28;5224;-60
2022/12/09 08:38:32;;;;;;;;;;;;;;;21.23;43.94;100333.75;5044064;28;5330;-59
2022/12/09 08:41:06;;;;;;;;;;;;;;;21.26;43.79;100331.69;5041039;28;4491;-60
2022/12/09 08:43:33;;;;;;;;;;;;;;;21.24;43.83;100337.38;5040812;28;4097;-60
2022/12/09 08:45:59;;;;;;;;;;;;;;;21.26;44.09;100332.44;5045502;28;5202;-59
2022/12/09 08:48:26;;;;;;;;;;;;;;;21.26;44.03;100341.06;5049794;28;5485;-59
2022/12/09 08:50:53;;;;;;;;;;;;;;;21.27;43.96;100339.66;5048568;28;4120;-60
2022/12/09 08:53:20;;;;;;;;;;;;;;;21.28;44.00;100334.63;5048950;28;4902;-60
2022/12/09 08:55:46;;;;;;;;;;;;;;;21.30;43.83;100338.34;5045339;28;5183;-60
2022/12/09 08:58:13;;;;;;;;;;;;;;;21.29;44.03;100336.84;5061605;28;3996;-60
2022/12/09 09:00:40;;;;;;;;;;;;;;;21.30;43.91;100344.09;5057158;28;4338;-60
2022/12/09 09:03:06;;;;;;;;;;;;;;;21.30;44.01;100341.22;5058581;28;4056;-59
2022/12/09 09:05:33;;;;;;;;;;;;;;;21.32;44.01;100347.03;5050384;28;5420;-59
2022/12/09 09:08:00;;;;;;;;;;;;;;;21.32;44.01;100341.25;5048893;28;3998;-59
2022/12/09 09:10:28;;;;;;;;;;;;;;;21.30;44.08;100344.09;5051162;28;6322;-59
2022/12/09 09:12:55;;;;;;;;;;;;;;;21.30;43.87;100346.22;5049080;28;5429;-59
2022/12/09 09:15:22;;;;;;;;;;;;;;;21.29;44.15;100354.13;5046357;28;4149;-60
2022/12/09 09:17:50;;;;;;;;;;;;;;;21.30;44.17;100346.22;5051405;28;4099;-60
2022/12/09 09:20:17;;;;;;;;;;;;;;;21.30;44.14;100349.84;5048498;28;4464;-60
2022/12/09 09:22:44;;;;;;;;;;;;;;;21.32;43.97;100346.28;5049986;28;4121;-59
2022/12/09 09:25:10;;;;;;;;;;;;;;;21.30;44.05;100344.09;5045847;28;4295;-59
2022/12/09 09:27:38;;;;;;;;;;;;;;;21.30;44.33;100343.34;5052712;28;4162;-60
2022/12/09 09:30:05;;;;;;;;;;;;;;;21.29;44.12;100348.38;5050842;28;5235;-59
2022/12/09 09:32:33;;;;;;;;;;;;;;;21.31;44.24;100348.44;5053203;28;4055;-60
2022/12/09 09:34:59;;;;;;;;;;;;;;;21.31;44.32;100350.59;5048668;28;5279;-60
2022/12/09 09:37:26;;;;;;;;;;;;;;;21.33;44.06;100356.41;5048026;28;4042;-59
2022/12/09 09:39:53;;;;;;;;;;;;;;;21.33;44.27;100344.91;5045192;28;4089;-60
2022/12/09 09:42:22;;;;;;;;;;;;;;;21.33;44.02;100347.78;5042646;28;5220;-59
2022/12/09 09:44:49;;;;;;;;;;;;;;;21.29;44.34;100336.84;5046543;28;4763;-59
2022/12/09 09:47:24;;;;;;;;;;;;;;;21.30;44.22;100346.97;5047178;28;5293;-60
2022/12/09 09:49:54;;;;;;;;;;;;;;;21.30;44.25;100332.56;5045997;28;3990;-60
2022/12/09 09:52:24;;;;;;;;;;;;;;;21.31;44.41;100345.56;5047108;28;5225;-59
2022/12/09 09:54:53;;;;;;;;;;;;;;;21.31;44.15;100339.78;5042516;28;4067;-60
2022/12/09 09:57:31;;;;;;;;;;;;;;;21.34;44.35;100344.22;5043234;28;4060;-60
2022/12/09 10:00:05;;;;;;;;;;;;;;;21.34;44.20;100349.97;5045941;28;5094;-60
2022/12/09 10:02:44;;;;;;;;;;;;;;;21.37;44.24;100352.91;5045528;28;4056;-59
2022/12/09 10:05:13;;;;;;;;;;;;;;;21.39;44.19;100338.59;5043395;28;4328;-60
2022/12/09 10:07:40;;;;;;;;;;;;;;;21.37;44.22;100347.16;5046363;28;4190;-59
2022/12/09 10:10:24;;;;;;;;;;;;;;;21.38;44.10;100331.38;5046014;28;5191;-59
2022/12/09 10:12:55;;;;;;;;;;;;;;;21.38;44.12;100331.38;5045326;28;5196;-59
2022/12/09 10:15:33;;;;;;;;;;;;;;;21.37;44.33;100333.50;5046148;28;4001;-59
2022/12/09 10:18:12;;;;;;;;;;;;;;;21.39;44.10;100327.81;5046366;28;4093;-60
2022/12/09 10:20:39;;;;;;;;;;;;;;;21.38;44.38;100325.63;5046201;28;4933;-60
2022/12/09 10:23:10;;;;;;;;;;;;;;;21.39;44.29;100324.19;5046938;28;4430;-59
2022/12/09 10:25:37;;;;;;;;;;;;;;;21.38;44.33;100325.63;5047215;28;4293;-59
2022/12/09 10:28:05;;;;;;;;;;;;;;;21.37;44.22;100324.13;5046384;28;4177;-60
2022/12/09 10:30:32;;;;;;;;;;;;;;;21.39;44.20;100322.03;5046776;28;4276;-59
2022/12/09 10:33:10;;;;;;;;;;;;;;;21.37;44.10;100324.84;5044787;28;3926;-60
2022/12/09 10:35:38;;;;;;;;;;;;;;;21.39;44.29;100324.19;5047275;28;4789;-59
2022/12/09 10:38:08;;;;;;;;;;;;;;;21.37;44.40;100321.97;5045127;28;4165;-60
2022/12/09 10:40:44;;;;;;;;;;;;;;;21.38;44.38;100319.84;5042905;28;4021;-59
2022/12/09 10:43:33;;;;;;;;;;;;;;;21.37;44.14;100324.84;5048373;28;3941;-60
2022/12/09 10:46:01;;;;;;;;;;;;;;;21.40;44.31;100317.03;5045886;28;3994;-60
2022/12/09 10:48:45;;;;;;;;;;;;;;;21.39;44.33;100324.94;5047575;28;4103;-60
2022/12/09 10:51:26;;;;;;;;;;;;;;;21.37;44.18;100319.09;5043676;28;3973;-59
2022/12/09 10:53:56;;;;;;;;;;;;;;;21.40;44.37;100317.81;5043800;28;3930;-59
2022/12/09 10:56:24;;;;;;;;;;;;;;;21.41;44.23;100313.50;5044302;28;3993;-60
2022/12/09 10:59:09;;;;;;;;;;;;;;;21.40;44.22;100317.03;5046210;28;3926;-60
2022/12/09 11:01:53;;;;;;;;;;;;;;;21.39;44.20;100304.03;5041276;28;5252;-59
2022/12/09 11:04:21;;;;;;;;;;;;;;;21.40;44.33;100317.81;5043946;28;4188;-60
2022/12/09 11:06:48;;;;;;;;;;;;;;;21.40;44.14;100314.16;5046000;28;4051;-60
2022/12/09 11:09:28;;;;;;;;;;;;;;;21.41;44.37;100309.88;5042980;28;4081;-60
2022/12/09 11:11:55;;;;;;;;;;;;;;;21.41;44.30;100304.13;5040302;28;4003;-59
2022/12/09 11:14:25;;;;;;;;;;;;;;;21.43;44.28;100304.19;5045492;28;4052;-60
2022/12/09 11:16:52;;;;;;;;;;;;;;;21.41;44.30;100296.22;5042561;28;4196;-59
2022/12/09 11:19:34;;;;;;;;;;;;;;;21.42;44.33;100302.75;5046979;28;4100;-59
2022/12/09 11:22:14;;;;;;;;;;;;;;;21.42;44.35;100297.72;5056893;28;4408;-59
2022/12/09 11:24:41;;;;;;;;;;;;;;;21.43;44.35;100293.41;5058561;28;4981;-60
2022/12/09 11:27:24;;;;;;;;;;;;;;;21.42;44.39;100288.34;5057332;28;4190;-59
2022/12/09 11:30:04;;;;;;;;;;;;;;;21.43;44.11;100292.69;5060033;28;5210;-60
2022/12/09 11:32:52;;;;;;;;;;;;;;;21.42;44.42;100288.34;5048838;28;4146;-60
2022/12/09 11:35:20;;;;;;;;;;;;;;;21.41;44.38;100284.69;5054261;28;5076;-59
2022/12/09 11:37:46;;;;;;;;;;;;;;;21.43;44.40;100284.03;5041946;28;4021;-59
2022/12/09 11:40:16;;;;;;;;;;;;;;;21.43;44.35;100281.88;5042328;28;3989;-59
2022/12/09 11:42:42;;;;;;;;;;;;;;;21.42;44.32;100280.44;5041946;28;4879;-59
2022/12/09 11:45:19;;;;;;;;;;;;;;;21.44;44.12;100271.09;5045366;28;5505;-60
2022/12/09 11:47:45;;;;;;;;;;;;;;;21.43;44.35;100272.53;5044162;28;5229;-60
2022/12/09 11:50:31;;;;;;;;;;;;;;;21.42;44.35;100273.94;5042945;28;4006;-60
2022/12/09 11:53:07;;;;;;;;;;;;;;;21.40;44.30;100280.34;5041377;28;4430;-59
2022/12/09 11:55:34;;;;;;;;;;;;;;;21.40;44.47;100285.38;5039355;28;4304;-59
2022/12/09 11:58:02;;;;;;;;;;;;;;;21.38;44.48;100285.28;5041463;28;3929;-59
2022/12/09 12:00:36;;;;;;;;;;;;;;;21.38;44.26;100283.13;5041647;28;4281;-60
2022/12/09 12:03:03;;;;;;;;;;;;;;;21.41;44.39;100283.97;5043116;28;4196;-60
2022/12/09 12:05:36;;;;;;;;;;;;;;;21.41;44.45;100281.09;5042202;28;5188;-60
2022/12/09 12:08:21;;;;;;;;;;;;;;;21.42;44.37;100279.69;5043111;28;5182;-59
2022/12/09 12:11:02;;;;;;;;;;;;;;;21.42;44.44;100279.69;5037773;28;4321;-60
2022/12/09 12:13:30;;;;;;;;;;;;;;;21.40;44.16;100277.47;5048235;28;3995;-60
2022/12/09 12:16:15;;;;;;;;;;;;;;;21.41;44.37;100278.94;5042407;28;4019;-59
2022/12/09 12:18:47;;;;;;;;;;;;;;;21.43;44.17;100276.13;5043370;28;4148;-60
2022/12/09 12:21:16;;;;;;;;;;;;;;;21.43;44.41;100266.75;5048209;28;4432;-59
2022/12/09 12:23:46;;;;;;;;;;;;;;;21.43;44.32;100267.50;5048652;28;5395;-59
2022/12/09 12:26:18;;;;;;;;;;;;;;;21.44;44.26;100265.34;5049171;28;4039;-59
2022/12/09 12:29:03;;;;;;;;;;;;;;;21.44;44.25;100268.22;5053584;28;4025;-59
2022/12/09 12:31:41;;;;;;;;;;;;;;;21.44;44.32;100262.47;5050738;28;3917;-59
2022/12/09 12:34:11;;;;;;;;;;;;;;;21.45;44.14;100261.06;5054049;28;5385;-60
2022/12/09 12:36:59;;;;;;;;;;;;;;;21.44;44.40;100259.56;5046648;28;5402;-59
2022/12/09 12:39:48;;;;;;;;;;;;;;;21.40;44.14;100253.69;5054137;28;4188;-60
2022/12/09 12:42:22;;;;;;;;;;;;;;;21.37;44.27;100249.25;5051383;28;5504;-56
2022/12/09 12:48:10;;;;;;;;;;;;;;;21.33;43.66;100244.84;5041787;28;4199;-57
2022/12/09 12:50:49;;;;;;;;;;;;;;;21.29;43.58;100250.47;5052377;28;5246;-60
2022/12/09 12:53:28;;;;;;;;;;;;;;;21.34;43.81;100251.31;5051577;28;4053;-55
2022/12/09 12:55:59;;;;;;;;;;;;;;;21.33;43.77;100247.72;5047008;28;4938;-57
2022/12/09 12:58:34;;;;;;;;;;;;;;;21.31;44.13;100247.66;5051205;28;4355;-49
2022/12/09 13:01:03;;;;;;;;;;;;;;;21.39;44.21;100246.44;5049649;28;4037;-56
2022/12/09 13:03:45;;;;;;;;;;;;;;;21.40;44.00;100254.44;5049210;28;5197;-56